createdAt,value
2023-03-05T00:01:42.226Z,1.05
2023-03-05T00:04:14.761Z,0.90
2023-03-05T00:06:43.214Z,1.05
2023-03-05T00:09:11.833Z,1.00
2023-03-05T00:11:41.758Z,0.88
2023-03-05T00:14:11.823Z,1.15
2023-03-05T00:16:40.608Z,0.85
2023-03-05T00:19:09.347Z,0.52
2023-03-05T00:21:39.313Z,0.90
2023-03-05T00:24:10.141Z,1.00
2023-03-05T00:26:39.748Z,0.80
2023-03-05T00:29:10.874Z,0.85
2023-03-05T00:31:39.666Z,0.90
2023-03-05T00:34:12.576Z,1.00
2023-03-05T00:36:42.330Z,0.77
2023-03-05T00:39:11.030Z,0.80
2023-03-05T00:41:39.953Z,0.98
2023-03-05T00:44:10.154Z,0.70
2023-03-05T00:46:38.983Z,0.93
2023-03-05T00:49:07.619Z,0.85
2023-03-05T00:51:36.152Z,0.90
2023-03-05T00:54:04.964Z,0.80
2023-03-05T00:56:35.263Z,0.90
2023-03-05T00:59:03.936Z,0.77
2023-03-05T01:01:33.844Z,0.82
2023-03-05T01:04:04.312Z,0.77
2023-03-05T01:06:32.911Z,0.90
2023-03-05T01:09:01.381Z,0.88
2023-03-05T01:11:29.855Z,0.80
2023-03-05T01:13:59.123Z,0.80
2023-03-05T01:16:27.738Z,0.63
2023-03-05T01:18:57.707Z,1.10
2023-03-05T01:21:26.204Z,0.80
2023-03-05T01:23:55.558Z,1.08
2023-03-05T01:26:24.063Z,0.70
2023-03-05T01:28:53.855Z,1.08
2023-03-05T01:31:22.834Z,0.80
2023-03-05T01:33:54.244Z,0.90
2023-03-05T01:36:25.339Z,0.70
2023-03-05T01:38:53.944Z,0.80
2023-03-05T01:41:23.026Z,0.90
2023-03-05T01:43:53.048Z,0.80
2023-03-05T01:46:27.484Z,0.80
2023-03-05T01:49:01.218Z,1.00
2023-03-05T01:51:33.588Z,0.60
2023-03-05T01:54:03.468Z,0.80
2023-03-05T01:56:32.458Z,0.90
2023-03-05T01:59:04.371Z,0.88
2023-03-05T02:01:41.228Z,0.80
2023-03-05T02:04:11.126Z,0.80
2023-03-05T02:06:43.811Z,0.80
2023-03-05T02:09:14.115Z,0.90
2023-03-05T02:11:43.185Z,1.00
2023-03-05T02:14:11.971Z,0.75
2023-03-05T02:16:40.888Z,0.70
2023-03-05T02:19:13.407Z,0.73
2023-03-05T02:21:45.525Z,0.82
2023-03-05T02:24:15.869Z,0.70
2023-03-05T02:26:45.218Z,1.02
2023-03-05T02:29:18.736Z,0.98
2023-03-05T02:31:47.800Z,0.88
2023-03-05T02:34:16.770Z,0.73
2023-03-05T02:36:46.912Z,0.75
2023-03-05T02:39:16.294Z,1.35
2023-03-05T02:41:44.992Z,0.70
2023-03-05T02:44:13.577Z,0.77
2023-03-05T02:46:42.218Z,0.88
2023-03-05T02:49:10.659Z,0.88
2023-03-05T02:51:39.238Z,0.90
2023-03-05T02:54:10.864Z,0.85
2023-03-05T02:56:39.838Z,1.13
2023-03-05T02:59:08.458Z,1.20
2023-03-05T03:01:37.179Z,0.90
2023-03-05T03:04:05.961Z,0.93
2023-03-05T03:06:34.533Z,0.75
2023-03-05T03:09:03.489Z,0.95
2023-03-05T03:11:33.429Z,0.88
2023-03-05T03:14:01.940Z,0.85
2023-03-05T03:16:30.464Z,1.00
2023-03-05T03:18:59.240Z,1.00
2023-03-05T03:21:28.171Z,0.77
2023-03-05T03:23:56.688Z,1.20
2023-03-05T03:26:25.655Z,1.17
2023-03-05T03:28:55.550Z,0.80
2023-03-05T03:31:24.240Z,1.10
2023-03-05T03:33:52.734Z,1.20
2023-03-05T03:36:21.243Z,1.10
2023-03-05T03:38:49.704Z,1.02
2023-03-05T03:41:19.049Z,1.00
2023-03-05T03:43:47.511Z,1.05
2023-03-05T03:46:17.428Z,1.05
2023-03-05T03:48:46.025Z,0.90
2023-03-05T03:51:14.459Z,1.13
2023-03-05T03:53:42.938Z,3.40
2023-03-05T03:56:11.553Z,4.80
2023-03-05T03:58:40.038Z,12.57
2023-03-05T04:01:08.634Z,1.40
2023-03-05T04:03:39.116Z,1.40
2023-03-05T04:06:08.355Z,1.15
2023-03-05T04:08:36.869Z,1.10
2023-03-05T04:11:05.658Z,2.65
2023-03-05T04:13:34.231Z,1.20
2023-03-05T04:16:02.869Z,0.82
2023-03-05T04:18:32.588Z,1.15
2023-03-05T04:21:02.531Z,1.10
2023-03-05T04:23:31.061Z,1.42
2023-03-05T04:25:59.617Z,0.90
2023-03-05T04:28:28.267Z,1.00
2023-03-05T04:30:56.796Z,0.88
2023-03-05T04:33:25.343Z,0.98
2023-03-05T04:35:53.972Z,1.30
2023-03-05T04:38:24.025Z,1.63
2023-03-05T04:40:52.448Z,1.10
2023-03-05T04:43:20.998Z,0.90
2023-03-05T04:45:49.606Z,1.25
2023-03-05T04:48:19.038Z,0.80
2023-03-05T04:50:47.527Z,1.17
2023-03-05T04:53:15.996Z,1.25
2023-03-05T04:55:46.020Z,1.05
2023-03-05T04:58:14.577Z,0.90
2023-03-05T05:00:43.730Z,1.20
2023-03-05T05:03:12.336Z,0.70
2023-03-05T05:05:40.874Z,1.20
2023-03-05T05:08:09.380Z,0.80
2023-03-05T05:10:39.749Z,0.80
2023-03-05T05:13:09.671Z,0.55
2023-03-05T05:15:38.125Z,0.95
2023-03-05T05:18:06.684Z,0.80
2023-03-05T05:20:35.157Z,0.70
2023-03-05T05:23:03.635Z,1.73
2023-03-05T05:25:32.774Z,0.82
2023-03-05T05:28:01.272Z,1.00
2023-03-05T05:30:31.174Z,2.05
2023-03-05T05:32:59.916Z,3.60
2023-03-05T05:35:28.497Z,0.98
2023-03-05T05:37:57.020Z,0.90
2023-03-05T05:40:25.493Z,0.93
2023-03-05T05:42:53.968Z,1.38
2023-03-05T05:45:22.555Z,1.00
2023-03-05T05:47:52.645Z,0.68
2023-03-05T05:50:21.298Z,0.90
2023-03-05T05:52:49.805Z,1.58
2023-03-05T05:55:18.444Z,0.70
2023-03-05T05:57:46.953Z,0.90
2023-03-05T06:00:16.357Z,1.00
2023-03-05T06:02:45.022Z,1.00
2023-03-05T06:05:16.097Z,0.98
2023-03-05T06:07:44.546Z,0.85
2023-03-05T06:10:13.422Z,1.10
2023-03-05T06:12:42.361Z,0.90
2023-03-05T06:15:11.370Z,1.25
2023-03-05T06:17:40.118Z,2.58
2023-03-05T06:20:11.787Z,4.43
2023-03-05T06:22:41.920Z,1.20
2023-03-05T06:25:11.531Z,1.42
2023-03-05T06:27:41.567Z,0.95
2023-03-05T06:30:13.203Z,1.98
2023-03-05T06:32:41.703Z,1.85
2023-03-05T06:35:10.721Z,1.48
2023-03-05T06:37:39.180Z,1.13
2023-03-05T06:40:11.308Z,1.20
2023-03-05T06:42:41.109Z,1.15
2023-03-05T06:45:11.203Z,1.30
2023-03-05T06:47:39.935Z,1.48
2023-03-05T06:50:09.171Z,1.30
2023-03-05T06:52:39.008Z,1.83
2023-03-05T06:55:10.307Z,2.28
2023-03-05T06:57:39.052Z,1.42
2023-03-05T07:00:10.274Z,1.20
2023-03-05T07:02:39.055Z,1.40
2023-03-05T07:05:09.190Z,1.73
2023-03-05T07:07:37.930Z,0.80
2023-03-05T07:10:09.486Z,1.45
2023-03-05T07:12:38.947Z,1.80
2023-03-05T07:15:08.604Z,1.52
2023-03-05T07:17:37.143Z,1.73
2023-03-05T07:20:06.410Z,1.42
2023-03-05T07:22:34.928Z,4.57
2023-03-05T07:25:03.519Z,1.60
2023-03-05T07:27:36.646Z,1.70
2023-03-05T07:30:06.803Z,1.55
2023-03-05T07:32:37.342Z,1.30
2023-03-05T07:35:06.537Z,1.42
2023-03-05T07:37:35.185Z,1.40
2023-03-05T07:40:04.839Z,1.63
2023-03-05T07:42:35.680Z,1.60
2023-03-05T07:45:16.215Z,1.63
2023-03-05T07:47:45.180Z,1.90
2023-03-05T07:50:13.796Z,1.90
2023-03-05T07:52:42.232Z,2.13
2023-03-05T07:55:12.604Z,2.40
2023-03-05T07:57:42.911Z,2.28
2023-03-05T08:00:12.582Z,2.78
2023-03-05T08:02:41.080Z,2.55
2023-03-05T08:05:10.023Z,2.67
2023-03-05T08:07:38.766Z,2.80
2023-03-05T08:10:08.634Z,2.75
2023-03-05T08:12:37.117Z,2.75
2023-03-05T08:15:09.435Z,2.63
2023-03-05T08:17:37.937Z,2.92
2023-03-05T08:20:11.017Z,3.83
2023-03-05T08:22:40.023Z,3.90
2023-03-05T08:25:09.435Z,3.83
2023-03-05T08:27:40.544Z,4.20
2023-03-05T08:30:14.299Z,4.40
2023-03-05T08:32:43.237Z,4.40
2023-03-05T08:35:11.949Z,3.80
2023-03-05T08:37:40.542Z,4.22
2023-03-05T08:40:10.418Z,3.72
2023-03-05T08:42:39.577Z,3.35
2023-03-05T08:45:11.179Z,4.00
2023-03-05T08:47:39.853Z,3.50
2023-03-05T08:50:09.400Z,2.75
2023-03-05T08:52:38.161Z,2.83
2023-03-05T08:55:06.975Z,3.00
2023-03-05T08:57:36.377Z,3.20
2023-03-05T09:00:05.760Z,2.67
2023-03-05T09:02:35.644Z,3.55
2023-03-05T09:05:04.527Z,2.95
2023-03-05T09:07:33.034Z,2.72
2023-03-05T09:10:01.529Z,2.72
2023-03-05T09:12:30.326Z,3.05
2023-03-05T09:14:58.798Z,3.53
2023-03-05T09:17:28.746Z,4.07
2023-03-05T09:19:58.619Z,3.90
2023-03-05T09:22:27.152Z,4.43
2023-03-05T09:24:56.552Z,3.78
2023-03-05T09:27:25.146Z,3.85
2023-03-05T09:29:53.794Z,4.40
2023-03-05T09:32:22.386Z,4.55
2023-03-05T09:34:50.947Z,3.55
2023-03-05T09:37:23.167Z,4.10
2023-03-05T09:39:51.892Z,4.35
2023-03-05T09:42:51.805Z,3.35
2023-03-05T09:45:26.960Z,3.30
2023-03-05T09:48:05.848Z,3.40
2023-03-05T09:50:41.511Z,3.58
2023-03-05T09:53:19.893Z,3.72
2023-03-05T09:55:52.236Z,3.45
2023-03-05T09:58:27.351Z,3.15
2023-03-05T10:01:01.998Z,3.50
2023-03-05T10:03:36.990Z,3.58
2023-03-05T10:06:12.719Z,3.33
2023-03-05T10:08:53.831Z,2.97
2023-03-05T10:11:42.968Z,3.22
2023-03-05T10:14:15.869Z,2.80
2023-03-05T10:17:11.341Z,2.95
2023-03-05T10:20:04.541Z,3.40
2023-03-05T10:22:40.805Z,3.13
2023-03-05T10:25:21.816Z,4.00
2023-03-05T10:27:54.390Z,4.30
2023-03-05T10:30:51.757Z,4.68
2023-03-05T10:33:33.495Z,4.55
2023-03-05T10:36:24.353Z,5.38
2023-03-05T10:39:23.864Z,4.53
2023-03-05T10:44:37.641Z,4.95
2023-03-05T10:47:20.266Z,5.43
2023-03-05T10:49:52.284Z,4.25
2023-03-05T10:52:26.663Z,3.75
2023-03-05T10:54:55.441Z,3.92
2023-03-05T10:57:27.124Z,3.13
2023-03-05T10:59:59.916Z,3.13
2023-03-05T11:02:28.923Z,3.47
2023-03-05T11:04:57.867Z,3.30
2023-03-05T11:07:36.093Z,3.47
2023-03-05T11:10:17.574Z,7.65
2023-03-05T11:12:49.460Z,3.53
2023-03-05T11:15:31.400Z,3.60
2023-03-05T11:18:18.040Z,3.53
2023-03-05T11:20:47.111Z,4.13
2023-03-05T11:23:17.672Z,3.70
2023-03-05T11:25:56.271Z,3.53
2023-03-05T11:28:33.299Z,4.25
2023-03-05T11:31:07.644Z,5.97
2023-03-05T11:36:27.466Z,5.55
2023-03-05T11:38:59.754Z,5.10
2023-03-05T11:41:35.091Z,5.80
2023-03-05T11:44:08.344Z,5.32
2023-03-05T11:46:42.335Z,4.57
2023-03-05T11:51:46.216Z,4.07
2023-03-05T11:54:22.410Z,4.43
2023-03-05T11:56:52.922Z,4.68
2023-03-05T11:59:28.709Z,4.60
2023-03-05T12:01:59.724Z,4.40
2023-03-05T12:04:29.183Z,4.70
2023-03-05T12:06:59.742Z,4.55
2023-03-05T12:09:34.959Z,4.18
2023-03-05T12:12:13.835Z,5.25
2023-03-05T12:14:49.776Z,4.68
2023-03-05T12:17:23.556Z,5.68
2023-03-05T12:19:57.204Z,5.75
2023-03-05T12:22:28.400Z,4.45
2023-03-05T12:25:29.192Z,5.13
2023-03-05T12:27:57.687Z,4.95
2023-03-05T12:31:00.019Z,4.32
2023-03-05T12:33:35.537Z,4.35
2023-03-05T12:36:39.781Z,4.22
2023-03-05T12:39:44.019Z,4.47
2023-03-05T12:42:54.159Z,4.45
2023-03-05T12:45:32.785Z,4.28
2023-03-05T12:48:38.221Z,4.30
2023-03-05T12:51:06.814Z,4.47
2023-03-05T12:53:35.255Z,3.60
2023-03-05T12:56:15.800Z,3.90
2023-03-05T12:58:46.280Z,2.97
2023-03-05T13:01:35.549Z,3.42
2023-03-05T13:04:10.944Z,3.20
2023-03-05T13:06:40.705Z,2.90
2023-03-05T13:09:17.962Z,3.03
2023-03-05T13:11:49.772Z,2.95
2023-03-05T13:14:31.490Z,3.33
2023-03-05T13:17:04.019Z,2.80
2023-03-05T13:19:36.259Z,2.85
2023-03-05T13:22:12.424Z,2.83
2023-03-05T13:24:40.916Z,2.92
2023-03-05T13:27:21.940Z,2.85
2023-03-05T13:29:54.364Z,2.72
2023-03-05T13:32:27.960Z,3.28
2023-03-05T13:34:58.546Z,2.90
2023-03-05T13:37:28.924Z,3.30
2023-03-05T13:40:00.912Z,3.03
2023-03-05T13:42:32.516Z,3.03
2023-03-05T13:45:03.177Z,2.80
2023-03-05T13:47:35.597Z,2.00
2023-03-05T13:50:06.609Z,2.25
2023-03-05T13:52:36.626Z,2.95
2023-03-05T13:55:14.749Z,2.22
2023-03-05T13:57:44.886Z,2.33
2023-03-05T14:00:29.424Z,2.20
2023-03-05T14:03:02.534Z,2.10
2023-03-05T14:05:32.669Z,2.70
2023-03-05T14:08:01.425Z,2.38
2023-03-05T14:10:34.656Z,2.28
2023-03-05T14:13:06.409Z,2.30
2023-03-05T14:15:37.022Z,2.25
2023-03-05T14:18:27.914Z,2.67
2023-03-05T14:21:03.310Z,2.47
2023-03-05T14:23:41.777Z,2.03
2023-03-05T14:26:22.379Z,1.90
2023-03-05T14:28:55.788Z,1.80
2023-03-05T14:31:28.159Z,1.95
2023-03-05T14:34:03.364Z,3.22
2023-03-05T14:36:32.729Z,2.35
2023-03-05T14:39:02.265Z,2.22
2023-03-05T14:41:40.286Z,2.90
2023-03-05T14:44:14.836Z,3.17
2023-03-05T14:46:44.770Z,2.67
2023-03-05T14:49:14.639Z,3.38
2023-03-05T14:51:45.562Z,3.00
2023-03-05T14:54:26.287Z,3.67
2023-03-05T14:56:55.026Z,3.85
2023-03-05T14:59:23.436Z,4.63
2023-03-05T15:01:52.077Z,4.50
2023-03-05T15:04:22.284Z,3.92
2023-03-05T15:06:54.537Z,4.28
2023-03-05T15:09:23.218Z,3.83
2023-03-05T15:11:51.826Z,4.50
2023-03-05T15:14:20.422Z,4.40
2023-03-05T15:16:49.066Z,4.15
2023-03-05T15:19:17.662Z,5.53
2023-03-05T15:21:47.492Z,4.68
2023-03-05T15:24:16.228Z,4.40
2023-03-05T15:26:44.675Z,4.70
2023-03-05T15:29:13.193Z,4.60
2023-03-05T15:31:41.682Z,3.95
2023-03-05T15:34:10.272Z,4.53
2023-03-05T15:36:38.845Z,4.93
2023-03-05T15:39:09.037Z,4.25
2023-03-05T15:41:37.494Z,4.10
2023-03-05T15:44:06.561Z,4.72
2023-03-05T15:46:36.092Z,4.25
2023-03-05T15:49:05.824Z,4.72
2023-03-05T15:51:34.451Z,4.75
2023-03-05T15:54:03.168Z,4.00
2023-03-05T15:56:35.417Z,4.22
2023-03-05T15:59:05.341Z,3.58
2023-03-05T16:01:33.800Z,3.95
2023-03-05T16:04:02.877Z,3.53
2023-03-05T16:06:32.144Z,4.20
2023-03-05T16:09:04.109Z,4.00
2023-03-05T16:11:37.234Z,4.03
2023-03-05T16:14:10.162Z,3.92
2023-03-05T16:16:40.209Z,3.95
2023-03-05T16:19:12.897Z,6.35
2023-03-05T16:21:41.840Z,3.78
2023-03-05T16:24:10.557Z,3.17
2023-03-05T16:26:43.675Z,4.63
2023-03-05T16:29:13.408Z,4.97
2023-03-05T16:31:43.341Z,3.90
2023-03-05T16:34:14.438Z,5.70
2023-03-05T16:36:48.616Z,5.18
2023-03-05T16:39:17.293Z,4.93
2023-03-05T16:41:47.409Z,4.25
2023-03-05T16:44:16.427Z,4.22
2023-03-05T16:46:49.371Z,4.30
2023-03-05T16:49:18.371Z,4.15
2023-03-05T16:51:47.071Z,3.92
2023-03-05T16:54:15.638Z,4.68
2023-03-05T16:56:44.165Z,4.95
2023-03-05T16:59:15.124Z,3.95
2023-03-05T17:01:44.982Z,3.53
2023-03-05T17:04:13.576Z,4.22
2023-03-05T17:06:42.205Z,4.25
2023-03-05T17:09:10.763Z,4.40
2023-03-05T17:11:39.309Z,4.18
2023-03-05T17:14:07.808Z,4.55
2023-03-05T17:16:39.263Z,5.00
2023-03-05T17:19:07.825Z,5.85
2023-03-05T17:21:36.357Z,4.78
2023-03-05T17:24:05.150Z,5.32
2023-03-05T17:26:35.985Z,5.80
2023-03-05T17:29:05.252Z,5.55
2023-03-05T17:31:34.362Z,4.93
2023-03-05T17:34:04.363Z,5.45
2023-03-05T17:36:33.197Z,5.00
2023-03-05T17:39:01.774Z,4.80
2023-03-05T17:41:30.394Z,5.07
2023-03-05T17:43:59.732Z,4.57
2023-03-05T17:46:28.250Z,5.13
2023-03-05T17:48:57.146Z,4.43
2023-03-05T17:51:27.118Z,4.95
2023-03-05T17:53:58.881Z,5.13
2023-03-05T17:56:27.392Z,4.63
2023-03-05T17:58:55.923Z,5.45
2023-03-05T18:01:27.269Z,6.03
2023-03-05T18:03:56.438Z,7.82
2023-03-05T18:06:27.218Z,6.07
2023-03-05T18:08:55.741Z,6.45
2023-03-05T18:11:24.622Z,7.45
2023-03-05T18:13:53.112Z,5.15
2023-03-05T18:16:23.524Z,5.50
2023-03-05T18:18:52.271Z,6.20
2023-03-05T18:21:21.885Z,6.00
2023-03-05T18:23:54.400Z,5.15
2023-03-05T18:26:23.050Z,5.55
2023-03-05T18:28:51.598Z,6.03
2023-03-05T18:31:20.626Z,6.18
2023-03-05T18:33:51.208Z,5.80
2023-03-05T18:36:20.225Z,5.80
2023-03-05T18:38:48.877Z,5.85
2023-03-05T18:41:22.652Z,5.90
2023-03-05T18:43:53.805Z,5.47
2023-03-05T18:46:22.518Z,5.60
2023-03-05T18:48:51.458Z,5.63
2023-03-05T18:51:21.765Z,5.70
2023-03-05T18:53:52.064Z,5.63
2023-03-05T18:56:22.015Z,5.90
2023-03-05T18:58:51.123Z,5.57
2023-03-05T19:01:22.181Z,5.65
2023-03-05T19:03:50.782Z,5.30
2023-03-05T19:06:19.559Z,5.90
2023-03-05T19:08:50.885Z,5.70
2023-03-05T19:11:22.554Z,5.45
2023-03-05T19:13:51.810Z,4.65
2023-03-05T19:16:22.118Z,5.15
2023-03-05T19:18:59.964Z,5.40
2023-03-05T19:21:30.114Z,5.25
2023-03-05T19:23:58.905Z,5.50
2023-03-05T19:26:29.339Z,5.65
2023-03-05T19:28:57.781Z,5.57
2023-03-05T19:31:26.289Z,5.20
2023-03-05T19:33:55.928Z,5.53
2023-03-05T19:36:24.850Z,5.22
2023-03-05T19:38:53.292Z,11.32
2023-03-05T19:41:21.877Z,10.18
2023-03-05T19:43:51.752Z,7.13
2023-03-05T19:46:20.317Z,5.90
2023-03-05T19:48:49.055Z,6.47
2023-03-05T19:51:20.331Z,6.50
2023-03-05T19:53:49.263Z,6.68
2023-03-05T19:56:18.616Z,6.53
2023-03-05T19:58:49.203Z,5.65
2023-03-05T20:01:22.215Z,7.00
2023-03-05T20:03:52.358Z,6.90
2023-03-05T20:06:21.744Z,7.18
2023-03-05T20:08:50.701Z,7.15
2023-03-05T20:11:21.046Z,6.60
2023-03-05T20:13:49.821Z,6.50
2023-03-05T20:16:21.430Z,6.70
2023-03-05T20:18:52.965Z,7.80
2023-03-05T20:21:23.353Z,7.18
2023-03-05T20:23:51.974Z,7.57
2023-03-05T20:26:21.130Z,6.53
2023-03-05T20:28:50.073Z,7.40
2023-03-05T20:31:21.594Z,7.07
2023-03-05T20:33:50.389Z,6.50
2023-03-05T20:36:19.259Z,6.43
2023-03-05T20:38:47.734Z,6.43
2023-03-05T20:41:18.659Z,6.43
2023-03-05T20:43:49.197Z,6.68
2023-03-05T20:46:19.523Z,6.53
2023-03-05T20:48:50.776Z,6.80
2023-03-05T20:51:22.829Z,6.47
2023-03-05T20:53:51.744Z,6.68
2023-03-05T20:56:20.401Z,6.90
2023-03-05T20:58:49.233Z,7.03
2023-03-05T21:01:17.803Z,7.80
2023-03-05T21:03:46.359Z,6.95
2023-03-05T21:06:16.277Z,6.97
2023-03-05T21:08:45.018Z,6.50
2023-03-05T21:11:14.354Z,6.47
2023-03-05T21:13:44.369Z,6.65
2023-03-05T21:16:17.217Z,5.80
2023-03-05T21:18:45.850Z,6.97
2023-03-05T21:21:16.748Z,6.10
2023-03-05T21:23:45.192Z,6.18
2023-03-05T21:26:14.017Z,6.15
2023-03-05T21:28:43.159Z,5.95
2023-03-05T21:31:15.889Z,6.00
2023-03-05T21:33:44.736Z,6.40
2023-03-05T21:36:13.600Z,6.63
2023-03-05T21:38:44.052Z,5.95
2023-03-05T21:41:13.618Z,6.45
2023-03-05T21:43:43.556Z,6.30
2023-03-05T21:46:12.610Z,6.07
2023-03-05T21:48:41.990Z,6.65
2023-03-05T21:51:12.788Z,6.88
2023-03-05T21:53:45.814Z,6.35
2023-03-05T21:56:23.980Z,5.80
2023-03-05T21:58:53.163Z,5.95
2023-03-05T22:01:22.389Z,6.03
2023-03-05T22:03:51.481Z,5.50
2023-03-05T22:06:21.135Z,5.40
2023-03-05T22:08:51.118Z,4.93
2023-03-05T22:11:21.090Z,5.60
2023-03-05T22:13:50.095Z,5.75
2023-03-05T22:16:23.795Z,4.75
2023-03-05T22:18:53.024Z,5.00
2023-03-05T22:21:25.432Z,5.45
2023-03-05T22:23:57.366Z,4.95
2023-03-05T22:26:27.036Z,4.38
2023-03-05T22:28:55.905Z,3.92
2023-03-05T22:31:26.404Z,4.47
2023-03-05T22:33:55.643Z,4.63
2023-03-05T22:36:24.628Z,4.32
2023-03-05T22:38:54.873Z,3.95
2023-03-05T22:41:23.753Z,4.10
2023-03-05T22:43:52.761Z,4.32
2023-03-05T22:46:23.266Z,4.10
2023-03-05T22:48:53.039Z,4.20
2023-03-05T22:51:22.590Z,4.45
2023-03-05T22:53:51.175Z,4.22
2023-03-05T22:56:22.352Z,4.10
2023-03-05T22:58:50.852Z,4.05
2023-03-05T23:01:21.091Z,4.13
2023-03-05T23:03:55.041Z,3.60
2023-03-05T23:06:26.218Z,3.95
2023-03-05T23:08:54.842Z,3.45
2023-03-05T23:11:24.718Z,4.22
2023-03-05T23:13:53.266Z,4.45
2023-03-05T23:16:22.224Z,3.95
2023-03-05T23:18:50.785Z,4.28
2023-03-05T23:21:19.640Z,4.45
2023-03-05T23:23:48.336Z,3.50
2023-03-05T23:26:16.942Z,3.55
2023-03-05T23:28:46.959Z,3.30
2023-03-05T23:31:18.900Z,3.22
2023-03-05T23:33:47.495Z,3.20
2023-03-05T23:36:19.990Z,2.90
2023-03-05T23:38:49.174Z,3.30
2023-03-05T23:41:17.620Z,3.20
2023-03-05T23:43:47.565Z,3.22
2023-03-05T23:46:16.485Z,2.92
2023-03-05T23:48:45.029Z,3.00
2023-03-05T23:51:13.501Z,3.22
2023-03-05T23:53:42.010Z,2.60
2023-03-05T23:56:11.608Z,3.20
2023-03-05T23:58:40.362Z,2.60
